Time;durP1;ratioP1;P1;durP2;ratioP2;P2;SDS_P1;SDS_P2;PMS_P1;PMS_P2;Temp;Humidity;BMP_temperature;BMP_pressure;BME280_temperature;BME280_humidity;BME280_pressure;Samples;Min_cycle;Max_cycle;Signal;HPM_P1;HPM_P2
2023/06/13 00:01:38;;;;;;;5.70;3.63;;;;;;;;;;6287246;28;20017;-73
2023/06/13 00:04:43;;;;;;;7.73;3.70;;;;;;;;;;6294194;28;20348;-73
2023/06/13 00:07:44;;;;;;;9.18;3.80;;;;;;;;;;6294398;28;20020;-73
2023/06/13 00:10:47;;;;;;;8.87;4.33;;;;;;;;;;6293196;28;20098;-73
2023/06/13 00:13:47;;;;;;;11.38;3.90;;;;;;;;;;6293494;28;20102;-73
2023/06/13 00:16:48;;;;;;;8.03;3.43;;;;;;;;;;6293629;28;20016;-84
2023/06/13 00:19:48;;;;;;;7.10;4.30;;;;;;;;;;6288221;28;20283;-85
2023/06/13 00:22:48;;;;;;;6.47;3.47;;;;;;;;;;6293321;28;20070;-84
2023/06/13 00:25:49;;;;;;;6.13;3.50;;;;;;;;;;6294125;28;20490;-73
2023/06/13 00:28:49;;;;;;;7.70;4.15;;;;;;;;;;6285226;28;20017;-73
2023/06/13 00:31:50;;;;;;;7.45;4.30;;;;;;;;;;6285710;28;20375;-73
2023/06/13 00:34:50;;;;;;;7.83;4.30;;;;;;;;;;6291363;28;20051;-84
2023/06/13 00:37:54;;;;;;;8.40;4.07;;;;;;;;;;6291634;28;20051;-82
2023/06/13 00:40:54;;;;;;;7.20;4.60;;;;;;;;;;6293207;28;20035;-84
2023/06/13 00:43:54;;;;;;;8.30;4.25;;;;;;;;;;6293503;28;20103;-83
2023/06/13 00:46:56;;;;;;;8.27;4.57;;;;;;;;;;6292527;28;20020;-81
2023/06/13 00:49:56;;;;;;;9.20;5.18;;;;;;;;;;6284185;28;20040;-84
2023/06/13 00:53:04;;;;;;;14.43;5.32;;;;;;;;;;6290526;28;20030;-83
2023/06/13 00:56:06;;;;;;;9.05;4.00;;;;;;;;;;6288539;28;20780;-72
2023/06/13 00:59:07;;;;;;;6.10;4.07;;;;;;;;;;6292877;28;20044;-72
2023/06/13 01:02:08;;;;;;;9.02;5.18;;;;;;;;;;6308786;28;20023;-71
2023/06/13 01:05:11;;;;;;;8.27;4.60;;;;;;;;;;6293566;28;20086;-72
2023/06/13 01:08:13;;;;;;;8.45;5.10;;;;;;;;;;6319560;28;20052;-71
2023/06/13 01:11:16;;;;;;;8.98;4.88;;;;;;;;;;6290204;28;20379;-72
2023/06/13 01:14:41;;;;;;;9.55;4.30;;;;;;;;;;6293294;28;20020;-72
2023/06/13 01:17:44;;;;;;;14.07;4.93;;;;;;;;;;6291028;28;20459;-72
2023/06/13 01:20:45;;;;;;;10.93;5.20;;;;;;;;;;6293332;28;20036;-72
2023/06/13 01:23:49;;;;;;;12.50;5.40;;;;;;;;;;6292815;28;20024;-72
2023/06/13 01:26:53;;;;;;;14.68;5.57;;;;;;;;;;6291005;28;20028;-72
2023/06/13 01:29:54;;;;;;;8.15;5.07;;;;;;;;;;6287905;28;20562;-72
2023/06/13 01:32:54;;;;;;;15.93;7.15;;;;;;;;;;6293180;28;20016;-72
2023/06/13 01:35:55;;;;;;;9.85;6.03;;;;;;;;;;6293454;28;20029;-81
2023/06/13 01:38:55;;;;;;;13.32;5.57;;;;;;;;;;6289545;28;20481;-82
2023/06/13 01:41:55;;;;;;;10.45;6.45;;;;;;;;;;6273995;28;20028;-82
2023/06/13 01:44:56;;;;;;;11.87;6.93;;;;;;;;;;6273746;28;20012;-82
2023/06/13 01:47:59;;;;;;;12.43;5.93;;;;;;;;;;6293251;28;20304;-81
2023/06/13 01:51:17;;;;;;;10.27;4.93;;;;;;;;;;6272861;28;20467;-82
2023/06/13 01:54:20;;;;;;;10.32;5.63;;;;;;;;;;6296319;28;20561;-80
2023/06/13 01:57:36;;;;;;;15.18;7.53;;;;;;;;;;6292065;28;20336;-81
2023/06/13 02:00:37;;;;;;;10.27;5.80;;;;;;;;;;6291873;28;20413;-81
2023/06/13 02:03:37;;;;;;;10.23;5.80;;;;;;;;;;6291908;28;20021;-82
2023/06/13 02:06:37;;;;;;;10.20;5.88;;;;;;;;;;6291854;28;20546;-73
2023/06/13 02:09:38;;;;;;;12.05;5.00;;;;;;;;;;6291205;28;20033;-73
2023/06/13 02:12:39;;;;;;;8.88;5.25;;;;;;;;;;6290968;28;20021;-72
2023/06/13 02:15:39;;;;;;;9.48;5.25;;;;;;;;;;6273465;28;20027;-72
2023/06/13 02:18:39;;;;;;;8.63;5.40;;;;;;;;;;6291178;28;20063;-74
2023/06/13 02:21:45;;;;;;;12.73;6.20;;;;;;;;;;6290816;28;20036;-73
2023/06/13 02:24:47;;;;;;;12.90;5.82;;;;;;;;;;6288528;28;20016;-73
2023/06/13 02:27:47;;;;;;;9.20;4.80;;;;;;;;;;6291641;28;20027;-73
2023/06/13 02:30:47;;;;;;;11.65;6.35;;;;;;;;;;6291360;28;20103;-73
2023/06/13 02:33:47;;;;;;;11.27;5.97;;;;;;;;;;6290097;28;20032;-71
2023/06/13 02:36:47;;;;;;;10.20;6.07;;;;;;;;;;6285229;28;20031;-72
2023/06/13 02:39:52;;;;;;;8.80;5.23;;;;;;;;;;6287037;28;20074;-73
2023/06/13 02:42:53;;;;;;;10.48;5.43;;;;;;;;;;6289219;28;20024;-73
2023/06/13 02:45:54;;;;;;;9.63;5.18;;;;;;;;;;6294861;28;20020;-73
2023/06/13 02:48:55;;;;;;;7.05;4.30;;;;;;;;;;6316220;28;20488;-73
2023/06/13 02:51:55;;;;;;;9.20;4.82;;;;;;;;;;6295848;28;20021;-73
2023/06/13 02:54:55;;;;;;;12.20;5.13;;;;;;;;;;6291050;28;20023;-73
2023/06/13 02:57:55;;;;;;;8.38;5.35;;;;;;;;;;6294024;28;20041;-72
2023/06/13 03:00:55;;;;;;;8.90;5.30;;;;;;;;;;6295599;28;20025;-72
2023/06/13 03:03:56;;;;;;;11.43;6.20;;;;;;;;;;6325472;28;20029;-71
2023/06/13 03:06:57;;;;;;;10.07;6.15;;;;;;;;;;6296539;28;20039;-73
2023/06/13 03:09:59;;;;;;;10.50;5.60;;;;;;;;;;6289678;28;20029;-73
2023/06/13 03:12:59;;;;;;;10.30;5.18;;;;;;;;;;6290993;28;20027;-73
2023/06/13 03:16:01;;;;;;;10.07;5.40;;;;;;;;;;6281286;28;20016;-73
2023/06/13 03:19:02;;;;;;;10.00;4.72;;;;;;;;;;6293392;28;20020;-73
2023/06/13 03:22:03;;;;;;;9.90;5.20;;;;;;;;;;6295111;28;20020;-73
2023/06/13 03:25:04;;;;;;;14.03;6.17;;;;;;;;;;6293514;28;20506;-72
2023/06/13 03:28:04;;;;;;;7.90;5.30;;;;;;;;;;6292100;28;20616;-73
2023/06/13 03:31:07;;;;;;;8.40;5.10;;;;;;;;;;6292542;28;20078;-74
2023/06/13 03:34:07;;;;;;;8.45;4.78;;;;;;;;;;6290773;28;20013;-73
2023/06/13 03:37:07;;;;;;;10.00;5.20;;;;;;;;;;6295445;28;20112;-73
2023/06/13 03:40:08;;;;;;;8.50;4.88;;;;;;;;;;6294405;28;20495;-73
2023/06/13 03:43:08;;;;;;;11.43;5.50;;;;;;;;;;6294603;28;20013;-73
2023/06/13 03:46:08;;;;;;;7.93;5.13;;;;;;;;;;6286170;28;20017;-73
2023/06/13 03:49:10;;;;;;;12.45;6.13;;;;;;;;;;6295002;28;20132;-73
2023/06/13 03:52:10;;;;;;;12.07;5.35;;;;;;;;;;6293945;28;20490;-72
2023/06/13 03:55:11;;;;;;;14.30;5.90;;;;;;;;;;6294007;28;20012;-73
2023/06/13 03:58:12;;;;;;;9.47;5.53;;;;;;;;;;6291180;28;20052;-73
2023/06/13 04:01:12;;;;;;;6.63;4.87;;;;;;;;;;6298292;28;20514;-74
2023/06/13 04:04:13;;;;;;;10.00;6.53;;;;;;;;;;6300904;28;20021;-73
2023/06/13 04:07:13;;;;;;;9.83;5.33;;;;;;;;;;6315417;28;20037;-80
2023/06/13 04:10:13;;;;;;;10.83;5.30;;;;;;;;;;6295046;28;20470;-81
2023/06/13 04:13:13;;;;;;;7.30;4.53;;;;;;;;;;6294270;28;20191;-80
2023/06/13 04:16:13;;;;;;;14.20;6.65;;;;;;;;;;6294053;28;20028;-73
2023/06/13 04:19:18;;;;;;;9.45;4.63;;;;;;;;;;6293922;28;20119;-73
2023/06/13 04:22:19;;;;;;;11.95;4.38;;;;;;;;;;6293843;28;20047;-73
2023/06/13 04:25:20;;;;;;;10.10;5.15;;;;;;;;;;6293630;28;20028;-83
2023/06/13 04:28:22;;;;;;;6.78;4.05;;;;;;;;;;6285849;28;20112;-82
2023/06/13 04:31:22;;;;;;;;;;;;;;;;;;6293905;28;20025;-82
2023/06/13 04:34:24;;;;;;;6.43;3.83;;;;;;;;;;6293451;28;19912;-82
2023/06/13 04:37:30;;;;;;;6.53;4.55;;;;;;;;;;6293617;28;20035;-73
2023/06/13 04:40:33;;;;;;;10.68;5.00;;;;;;;;;;6289579;28;20025;-73
2023/06/13 04:43:33;;;;;;;10.32;5.20;;;;;;;;;;6290188;28;20382;-73
2023/06/13 04:46:35;;;;;;;8.63;4.30;;;;;;;;;;6292940;28;20016;-73
2023/06/13 04:49:36;;;;;;;8.63;4.15;;;;;;;;;;6293920;28;20074;-73
2023/06/13 04:52:40;;;;;;;10.37;4.03;;;;;;;;;;6289951;28;20032;-73
2023/06/13 04:55:40;;;;;;;8.95;4.25;;;;;;;;;;6286085;28;20267;-73
2023/06/13 04:58:41;;;;;;;5.97;4.00;;;;;;;;;;6292534;28;20087;-73
2023/06/13 05:01:43;;;;;;;10.32;4.03;;;;;;;;;;6292776;28;20020;-73
2023/06/13 05:04:44;;;;;;;6.45;3.40;;;;;;;;;;6289909;28;20024;-72
2023/06/13 05:07:47;;;;;;;8.45;3.83;;;;;;;;;;6291993;28;20076;-73
2023/06/13 05:10:48;;;;;;;9.35;4.22;;;;;;;;;;6285112;28;20390;-73
2023/06/13 05:13:48;;;;;;;7.63;4.53;;;;;;;;;;6285544;28;20036;-73
2023/06/13 05:16:48;;;;;;;9.65;3.83;;;;;;;;;;6292556;28;20051;-81
2023/06/13 05:19:48;;;;;;;6.43;3.13;;;;;;;;;;6292585;28;20040;-82
2023/06/13 05:22:50;;;;;;;5.33;3.33;;;;;;;;;;6292331;28;20129;-81
2023/06/13 05:25:50;;;;;;;9.85;3.70;;;;;;;;;;6292897;28;20095;-81
2023/06/13 05:28:51;;;;;;;7.30;3.53;;;;;;;;;;6292340;28;20028;-82
2023/06/13 05:31:51;;;;;;;6.97;3.17;;;;;;;;;;6285874;28;20032;-81
2023/06/13 05:34:51;;;;;;;12.83;3.20;;;;;;;;;;6292885;28;20028;-81
2023/06/13 05:37:51;;;;;;;7.87;3.37;;;;;;;;;;6292298;28;20028;-81
2023/06/13 05:40:52;;;;;;;6.87;3.30;;;;;;;;;;6289086;28;20063;-81
2023/06/13 05:43:52;;;;;;;9.47;2.70;;;;;;;;;;6292234;28;20467;-80
2023/06/13 05:46:52;;;;;;;7.13;2.73;;;;;;;;;;6291268;28;20020;-81
2023/06/13 05:49:52;;;;;;;5.80;3.42;;;;;;;;;;6297615;28;20025;-80
2023/06/13 05:52:53;;;;;;;5.10;2.30;;;;;;;;;;6290332;28;20060;-80
2023/06/13 05:55:53;;;;;;;15.23;3.10;;;;;;;;;;6301490;28;20415;-80
2023/06/13 05:58:53;;;;;;;3.38;2.03;;;;;;;;;;6289406;28;20032;-77
2023/06/13 06:01:53;;;;;;;5.93;2.58;;;;;;;;;;6269611;28;20379;-79
2023/06/13 06:04:55;;;;;;;4.27;2.50;;;;;;;;;;6274798;28;20047;-72
2023/06/13 06:07:55;;;;;;;;;;;;;;;;;;6291457;28;20550;-72
2023/06/13 06:10:56;;;;;;;6.20;2.80;;;;;;;;;;6291867;28;19913;-72
2023/06/13 06:13:56;;;;;;;4.38;2.80;;;;;;;;;;6290191;28;20120;-72
2023/06/13 06:16:57;;;;;;;8.03;3.10;;;;;;;;;;6294392;28;20497;-72
2023/06/13 06:19:57;;;;;;;9.82;4.78;;;;;;;;;;6295153;28;20063;-72
2023/06/13 06:22:58;;;;;;;13.80;6.95;;;;;;;;;;6292225;28;20056;-72
2023/06/13 06:25:58;;;;;;;17.03;5.83;;;;;;;;;;6299022;28;20449;-72
2023/06/13 06:28:58;;;;;;;5.22;2.78;;;;;;;;;;6292523;28;20024;-73
2023/06/13 06:31:59;;;;;;;4.07;2.80;;;;;;;;;;6299639;28;20470;-73
2023/06/13 06:34:59;;;;;;;2.30;2.00;;;;;;;;;;6296776;28;20025;-81
2023/06/13 06:38:00;;;;;;;6.20;2.50;;;;;;;;;;6295894;28;20028;-81
2023/06/13 06:41:00;;;;;;;3.38;2.30;;;;;;;;;;6295695;28;20567;-80
2023/06/13 06:44:00;;;;;;;5.90;2.93;;;;;;;;;;6295941;28;20073;-80
2023/06/13 06:47:00;;;;;;;2.53;1.83;;;;;;;;;;6293732;28;20021;-80
2023/06/13 06:50:01;;;;;;;6.30;1.77;;;;;;;;;;6296625;28;20028;-81
2023/06/13 06:53:01;;;;;;;5.10;2.27;;;;;;;;;;6295950;28;20025;-81
2023/06/13 06:56:01;;;;;;;3.03;1.87;;;;;;;;;;6290987;28;20467;-81
2023/06/13 06:59:01;;;;;;;3.20;2.20;;;;;;;;;;6295366;28;20611;-79
2023/06/13 07:02:02;;;;;;;2.33;1.73;;;;;;;;;;6296243;28;20578;-80
2023/06/13 07:05:02;;;;;;;2.97;1.75;;;;;;;;;;6295842;28;20028;-82
2023/06/13 07:08:02;;;;;;;5.17;2.50;;;;;;;;;;6293975;28;20041;-81
2023/06/13 07:11:03;;;;;;;2.63;1.90;;;;;;;;;;6291633;28;20024;-82
2023/06/13 07:14:03;;;;;;;2.97;2.17;;;;;;;;;;6291106;28;20063;-84
2023/06/13 07:17:04;;;;;;;4.82;2.80;;;;;;;;;;6292543;28;20013;-74
2023/06/13 07:20:08;;;;;;;3.43;1.73;;;;;;;;;;6282970;28;20048;-73
2023/06/13 07:23:08;;;;;;;3.33;1.67;;;;;;;;;;6297189;28;20021;-73
2023/06/13 07:26:08;;;;;;;4.75;2.03;;;;;;;;;;6294746;28;20439;-73
2023/06/13 07:29:09;;;;;;;4.20;2.53;;;;;;;;;;6298364;28;20036;-73
2023/06/13 07:32:09;;;;;;;4.17;2.10;;;;;;;;;;6294770;28;20470;-73
2023/06/13 07:35:09;;;;;;;5.50;2.63;;;;;;;;;;6285689;28;20074;-73
2023/06/13 07:38:09;;;;;;;12.97;6.47;;;;;;;;;;6294342;28;20154;-74
2023/06/13 07:41:10;;;;;;;4.07;1.63;;;;;;;;;;6287607;28;20086;-73
2023/06/13 07:44:10;;;;;;;2.13;1.60;;;;;;;;;;6284347;28;20557;-74
2023/06/13 07:47:10;;;;;;;4.57;2.10;;;;;;;;;;6294141;28;20103;-73
2023/06/13 07:50:11;;;;;;;7.40;2.90;;;;;;;;;;6297934;28;20383;-73
2023/06/13 07:53:11;;;;;;;3.40;2.17;;;;;;;;;;6290654;28;20395;-74
2023/06/13 07:56:11;;;;;;;5.90;1.90;;;;;;;;;;6292667;28;20044;-73
2023/06/13 07:59:11;;;;;;;6.27;1.97;;;;;;;;;;6289983;28;20488;-74
2023/06/13 08:02:12;;;;;;;3.37;1.83;;;;;;;;;;6293894;28;20100;-73
2023/06/13 08:05:12;;;;;;;2.03;1.50;;;;;;;;;;6294732;28;20020;-74
2023/06/13 08:08:13;;;;;;;3.53;2.40;;;;;;;;;;6289888;28;20024;-73
2023/06/13 08:11:13;;;;;;;6.03;1.47;;;;;;;;;;6293848;28;20043;-74
2023/06/13 08:14:14;;;;;;;8.50;2.37;;;;;;;;;;6309608;28;20028;-74
2023/06/13 08:17:15;;;;;;;2.77;1.80;;;;;;;;;;6289485;28;20028;-74
2023/06/13 08:20:15;;;;;;;5.28;1.80;;;;;;;;;;6290095;28;20020;-73
2023/06/13 08:23:17;;;;;;;6.10;2.33;;;;;;;;;;6287593;28;20930;-73
2023/06/13 08:26:18;;;;;;;2.85;2.00;;;;;;;;;;6293779;28;20029;-85
2023/06/13 08:29:18;;;;;;;5.27;2.17;;;;;;;;;;6275805;28;20123;-84
2023/06/13 08:32:20;;;;;;;5.40;2.30;;;;;;;;;;6293630;28;20053;-85
2023/06/13 08:35:22;;;;;;;4.35;2.42;;;;;;;;;;6288187;28;20032;-85
2023/06/13 08:38:24;;;;;;;2.03;1.50;;;;;;;;;;6264787;28;20213;-85
2023/06/13 08:41:24;;;;;;;4.28;1.98;;;;;;;;;;6290218;28;20025;-85
2023/06/13 08:44:26;;;;;;;6.82;2.55;;;;;;;;;;6293391;28;20401;-85
2023/06/13 08:47:26;;;;;;;8.57;2.55;;;;;;;;;;6288182;28;20115;-83
2023/06/13 08:50:26;;;;;;;4.50;2.13;;;;;;;;;;6294025;28;20035;-84
2023/06/13 08:53:29;;;;;;;4.67;2.10;;;;;;;;;;6292512;28;20493;-84
2023/06/13 08:56:33;;;;;;;5.18;2.60;;;;;;;;;;6276036;28;20029;-85
2023/06/13 08:59:36;;;;;;;5.75;2.55;;;;;;;;;;6292268;28;20044;-85
2023/06/13 09:02:37;;;;;;;5.88;2.47;;;;;;;;;;6291903;28;20126;-85
2023/06/13 09:05:38;;;;;;;5.43;1.92;;;;;;;;;;6292442;28;20051;-85
2023/06/13 09:08:39;;;;;;;5.75;2.38;;;;;;;;;;6288450;28;20545;-83
2023/06/13 09:11:40;;;;;;;3.33;2.40;;;;;;;;;;6293267;28;20585;-84
2023/06/13 09:14:40;;;;;;;6.55;2.42;;;;;;;;;;6291090;28;20016;-84
2023/06/13 09:17:41;;;;;;;5.13;2.67;;;;;;;;;;6292262;28;20032;-83
2023/06/13 09:20:41;;;;;;;4.70;2.43;;;;;;;;;;6293248;28;20020;-86
2023/06/13 09:23:42;;;;;;;8.07;3.87;;;;;;;;;;6292505;28;20104;-82
2023/06/13 09:26:43;;;;;;;6.63;3.60;;;;;;;;;;6292729;28;20020;-85
2023/06/13 09:29:44;;;;;;;7.50;3.15;;;;;;;;;;6286628;28;20119;-84
2023/06/13 09:32:49;;;;;;;4.00;2.28;;;;;;;;;;6293307;28;20024;-86
2023/06/13 09:35:52;;;;;;;3.97;1.85;;;;;;;;;;6283852;28;20020;-74
2023/06/13 09:38:54;;;;;;;9.00;2.85;;;;;;;;;;6288129;28;20020;-74
2023/06/13 09:41:55;;;;;;;4.25;2.55;;;;;;;;;;6288765;28;20024;-73
2023/06/13 09:44:55;;;;;;;4.45;2.90;;;;;;;;;;6286854;28;20442;-74
2023/06/13 09:47:55;;;;;;;5.37;2.77;;;;;;;;;;6273942;28;20368;-74
2023/06/13 09:50:58;;;;;;;5.30;2.50;;;;;;;;;;6286374;28;20470;-74
2023/06/13 09:54:00;;;;;;;4.85;2.25;;;;;;;;;;6288069;28;20032;-74
2023/06/13 09:57:00;;;;;;;7.93;2.97;;;;;;;;;;6290254;28;21595;-74
2023/06/13 10:00:00;;;;;;;4.65;2.33;;;;;;;;;;6291996;28;20044;-74
2023/06/13 10:03:02;;;;;;;4.80;2.60;;;;;;;;;;6291935;28;20421;-74
2023/06/13 10:06:02;;;;;;;8.13;3.20;;;;;;;;;;6295701;28;20021;-82
2023/06/13 10:09:03;;;;;;;3.90;2.28;;;;;;;;;;6291263;28;20697;-81
2023/06/13 10:12:05;;;;;;;7.87;2.57;;;;;;;;;;6291532;28;20430;-84
2023/06/13 10:15:06;;;;;;;5.63;2.38;;;;;;;;;;6289170;28;20028;-85
2023/06/13 10:18:10;;;;;;;4.33;2.43;;;;;;;;;;6290342;28;20036;-84
2023/06/13 10:21:13;;;;;;;5.95;2.53;;;;;;;;;;6292001;28;20341;-85
2023/06/13 10:24:14;;;;;;;6.35;2.83;;;;;;;;;;6291530;28;20115;-83
2023/06/13 10:27:17;;;;;;;;;;;;;;;;;;6286622;28;20019;-82
2023/06/13 10:30:31;;;;;;;7.05;3.10;;;;;;;;;;6291062;28;19919;-83
2023/06/13 10:33:48;;;;;;;4.22;2.50;;;;;;;;;;6287266;28;20546;-85
2023/06/13 10:37:08;;;;;;;7.43;3.05;;;;;;;;;;6290715;28;20036;-84
2023/06/13 10:40:08;;;;;;;6.40;3.10;;;;;;;;;;6305956;28;20025;-84
2023/06/13 10:43:38;;;;;;;7.90;2.67;;;;;;;;;;6290402;28;20580;-84
2023/06/13 10:46:38;;;;;;;7.10;2.88;;;;;;;;;;6277415;28;20109;-86
2023/06/13 10:49:39;;;;;;;6.50;3.00;;;;;;;;;;6292181;28;20024;-84
2023/06/13 10:58:58;;;;;;;6.93;2.83;;;;;;;;;;6215637;28;20090;-85
2023/06/13 11:01:58;;;;;;;5.38;2.50;;;;;;;;;;6218172;28;20085;-86
2023/06/13 11:05:01;;;;;;;8.20;3.67;;;;;;;;;;6221962;28;20018;-85
2023/06/13 11:08:03;;;;;;;8.50;2.97;;;;;;;;;;6221464;28;20020;-87
2023/06/13 11:11:04;;;;;;;11.05;3.03;;;;;;;;;;6221275;28;20550;-85
2023/06/13 11:14:06;;;;;;;7.10;2.75;;;;;;;;;;6219185;28;20436;-84
2023/06/13 11:17:06;;;;;;;7.05;2.15;;;;;;;;;;6203729;28;20036;-86
2023/06/13 11:20:17;;;;;;;5.95;2.72;;;;;;;;;;6221132;28;20026;-86
2023/06/13 11:23:18;;;;;;;4.07;1.92;;;;;;;;;;6220821;28;20176;-84
2023/06/13 11:26:20;;;;;;;2.97;1.95;;;;;;;;;;6217115;28;20017;-86
2023/06/13 11:29:20;;;;;;;;;;;;;;;;;;6222126;28;20108;-86
2023/06/13 11:32:21;;;;;;;3.77;1.97;;;;;;;;;;6221478;28;19909;-85
2023/06/13 11:35:23;;;;;;;3.10;1.85;;;;;;;;;;6217247;28;20034;-85
2023/06/13 11:38:40;;;;;;;4.70;2.20;;;;;;;;;;6219794;28;20010;-82
2023/06/13 11:41:40;;;;;;;6.18;3.08;;;;;;;;;;6219233;28;20597;-86
2023/06/13 11:44:41;;;;;;;9.13;2.20;;;;;;;;;;6218010;28;20021;-87
2023/06/13 11:47:43;;;;;;;7.07;2.70;;;;;;;;;;6220335;28;20053;-86
2023/06/13 11:50:44;;;;;;;5.65;2.30;;;;;;;;;;6223511;28;20036;-82
2023/06/13 11:53:45;;;;;;;4.95;2.20;;;;;;;;;;6218733;28;20010;-85
2023/06/13 11:56:50;;;;;;;3.72;1.65;;;;;;;;;;6220609;28;20049;-84
2023/06/13 11:59:59;;;;;;;3.83;1.67;;;;;;;;;;6224474;28;20069;-85
2023/06/13 12:02:59;;;;;;;5.30;2.55;;;;;;;;;;6230308;28;20180;-90
2023/06/13 12:06:00;;;;;;;2.43;1.87;;;;;;;;;;6219988;28;20010;-73
2023/06/13 12:09:00;;;;;;;3.57;2.17;;;;;;;;;;6227213;28;20562;-73
2023/06/13 12:12:01;;;;;;;4.87;2.17;;;;;;;;;;6210597;28;20029;-74
2023/06/13 12:15:02;;;;;;;2.33;1.42;;;;;;;;;;6213941;28;20101;-73
2023/06/13 12:18:02;;;;;;;5.43;2.15;;;;;;;;;;6223556;28;20104;-74
2023/06/13 12:21:03;;;;;;;2.43;1.63;;;;;;;;;;6226584;28;20673;-73
2023/06/13 12:24:07;;;;;;;2.42;1.70;;;;;;;;;;6233556;28;20031;-73
2023/06/13 12:27:07;;;;;;;5.07;1.80;;;;;;;;;;6222382;28;20104;-73
2023/06/13 12:30:08;;;;;;;2.67;1.63;;;;;;;;;;6222329;28;20025;-73
2023/06/13 12:33:17;;;;;;;3.30;1.65;;;;;;;;;;6224902;28;20025;-72
2023/06/13 12:36:17;;;;;;;2.70;1.70;;;;;;;;;;6210869;28;20022;-72
2023/06/13 12:39:17;;;;;;;4.45;2.00;;;;;;;;;;6218888;28;20429;-73
2023/06/13 12:42:17;;;;;;;3.60;2.20;;;;;;;;;;6201542;28;20028;-72
2023/06/13 12:45:18;;;;;;;7.87;1.97;;;;;;;;;;6225097;28;20390;-73
2023/06/13 12:48:19;;;;;;;3.43;1.80;;;;;;;;;;6218594;28;20384;-73
2023/06/13 12:51:29;;;;;;;3.05;1.45;;;;;;;;;;6225614;28;20041;-72
2023/06/13 12:54:31;;;;;;;11.00;1.60;;;;;;;;;;6227713;28;20672;-73
2023/06/13 12:57:33;;;;;;;2.58;1.73;;;;;;;;;;6224416;28;20053;-73
2023/06/13 13:00:33;;;;;;;1.90;1.45;;;;;;;;;;6217694;28;20487;-73
2023/06/13 13:03:34;;;;;;;1.87;1.63;;;;;;;;;;6219494;28;20025;-73
2023/06/13 13:06:35;;;;;;;1.63;1.38;;;;;;;;;;6218234;28;20021;-72
2023/06/13 13:09:39;;;;;;;2.35;1.30;;;;;;;;;;6217589;28;20443;-73
2023/06/13 13:12:41;;;;;;;1.52;1.08;;;;;;;;;;6218476;28;20427;-74
2023/06/13 13:15:41;;;;;;;2.25;1.30;;;;;;;;;;6223860;28;20041;-86
2023/06/13 13:18:42;;;;;;;3.40;1.60;;;;;;;;;;6221286;28;20740;-84
2023/06/13 13:21:42;;;;;;;3.17;1.50;;;;;;;;;;6225977;28;20018;-87
2023/06/13 13:24:42;;;;;;;1.67;1.47;;;;;;;;;;6213497;28;20032;-87
2023/06/13 13:27:44;;;;;;;3.37;1.60;;;;;;;;;;6198914;28;20459;-85
2023/06/13 13:30:44;;;;;;;3.15;1.60;;;;;;;;;;6219044;28;20018;-86
2023/06/13 13:33:45;;;;;;;3.90;1.50;;;;;;;;;;6225697;28;20026;-87
2023/06/13 13:36:45;;;;;;;1.70;1.43;;;;;;;;;;6218269;28;20024;-88
2023/06/13 13:39:45;;;;;;;7.10;2.20;;;;;;;;;;6217753;28;20460;-88
2023/06/13 13:42:45;;;;;;;5.70;2.70;;;;;;;;;;6218287;28;20024;-88
2023/06/13 13:45:46;;;;;;;4.00;1.70;;;;;;;;;;6220580;28;20022;-87
2023/06/13 13:48:47;;;;;;;1.20;1.10;;;;;;;;;;6212588;28;20063;-86
2023/06/13 13:51:48;;;;;;;2.80;1.50;;;;;;;;;;6218215;28;20026;-87
2023/06/13 13:54:50;;;;;;;1.90;1.10;;;;;;;;;;6204366;28;20045;-82
2023/06/13 13:57:50;;;;;;;2.53;1.30;;;;;;;;;;6220001;28;20459;-87
2023/06/13 14:00:50;;;;;;;2.17;1.77;;;;;;;;;;6219849;28;20018;-86
2023/06/13 14:03:51;;;;;;;2.58;1.50;;;;;;;;;;6219297;28;20010;-85
2023/06/13 14:06:52;;;;;;;2.53;1.60;;;;;;;;;;6212292;28;20022;-87
2023/06/13 14:09:52;;;;;;;4.43;1.37;;;;;;;;;;6208484;28;20028;-85
2023/06/13 14:12:52;;;;;;;2.93;1.40;;;;;;;;;;6222941;28;20068;-86
2023/06/13 14:15:54;;;;;;;3.40;1.33;;;;;;;;;;6216871;28;20053;-83
2023/06/13 14:18:57;;;;;;;2.28;1.60;;;;;;;;;;6214999;28;20450;-82
2023/06/13 14:21:57;;;;;;;3.00;1.88;;;;;;;;;;6217224;28;20053;-87
2023/06/13 14:24:57;;;;;;;3.35;1.20;;;;;;;;;;6217527;28;20017;-73
2023/06/13 14:27:57;;;;;;;2.70;1.70;;;;;;;;;;6217192;28;20476;-73
2023/06/13 14:30:57;;;;;;;3.40;1.42;;;;;;;;;;6217437;28;20030;-73
2023/06/13 14:33:58;;;;;;;3.25;1.90;;;;;;;;;;6220178;28;20025;-74
2023/06/13 14:36:58;;;;;;;1.97;1.13;;;;;;;;;;6219782;28;20056;-73
2023/06/13 14:39:58;;;;;;;4.70;1.40;;;;;;;;;;6220670;28;20030;-74
2023/06/13 14:42:59;;;;;;;3.07;1.30;;;;;;;;;;6221265;28;20045;-74
2023/06/13 14:45:59;;;;;;;3.72;1.50;;;;;;;;;;6203661;28;20124;-74
2023/06/13 14:49:00;;;;;;;2.72;1.50;;;;;;;;;;6220893;28;20030;-74
2023/06/13 14:52:00;;;;;;;1.37;1.27;;;;;;;;;;6220696;28;20025;-75
2023/06/13 14:55:01;;;;;;;3.57;0.93;;;;;;;;;;6203902;28;20026;-74
2023/06/13 14:58:01;;;;;;;1.13;1.03;;;;;;;;;;6215041;28;20400;-72
2023/06/13 15:01:01;;;;;;;1.73;1.55;;;;;;;;;;6221448;28;20021;-73
2023/06/13 15:04:03;;;;;;;3.47;1.70;;;;;;;;;;6220980;28;20018;-73
2023/06/13 15:07:03;;;;;;;2.65;1.13;;;;;;;;;;6221810;28;20025;-72
2023/06/13 15:10:04;;;;;;;1.30;1.20;;;;;;;;;;6220434;28;20447;-72
2023/06/13 15:13:05;;;;;;;9.07;1.52;;;;;;;;;;6224654;28;20022;-72
2023/06/13 15:16:07;;;;;;;1.27;1.17;;;;;;;;;;6220435;28;20022;-72
2023/06/13 15:19:07;;;;;;;2.50;1.13;;;;;;;;;;6220043;28;20026;-72
2023/06/13 15:22:07;;;;;;;1.80;1.10;;;;;;;;;;6219003;28;20164;-72
2023/06/13 15:25:09;;;;;;;3.73;1.10;;;;;;;;;;6219358;28;20026;-72
2023/06/13 15:28:09;;;;;;;2.33;1.25;;;;;;;;;;6218548;28;20018;-73
2023/06/13 15:31:09;;;;;;;1.20;1.10;;;;;;;;;;6220199;28;20043;-73
2023/06/13 15:34:09;;;;;;;2.92;1.30;;;;;;;;;;6220601;28;20427;-86
2023/06/13 15:37:10;;;;;;;1.48;1.15;;;;;;;;;;6220373;28;20021;-85
2023/06/13 15:40:10;;;;;;;1.45;1.10;;;;;;;;;;6216470;28;20469;-83
2023/06/13 15:43:10;;;;;;;2.60;1.00;;;;;;;;;;6226987;28;20041;-79
2023/06/13 15:46:11;;;;;;;2.80;1.63;;;;;;;;;;6227589;28;20764;-88
2023/06/13 15:49:11;;;;;;;2.67;1.95;;;;;;;;;;6229091;28;20468;-87
2023/06/13 15:52:11;;;;;;;2.45;1.38;;;;;;;;;;6234308;28;20036;-84
2023/06/13 15:55:11;;;;;;;1.30;1.10;;;;;;;;;;6222348;28;20480;-87
2023/06/13 15:58:13;;;;;;;1.50;1.10;;;;;;;;;;6220647;28;20085;-86
2023/06/13 16:01:14;;;;;;;4.65;1.23;;;;;;;;;;6220052;28;20025;-89
2023/06/13 16:04:14;;;;;;;;;;;;;;;;;;6226238;28;20109;-86
2023/06/13 16:07:14;;;;;;;2.88;1.25;;;;;;;;;;6220434;28;19905;-86
2023/06/13 16:10:16;;;;;;;2.70;0.90;;;;;;;;;;6216365;28;20041;-85
2023/06/13 16:13:16;;;;;;;3.97;1.50;;;;;;;;;;6220781;28;20033;-84
2023/06/13 16:16:16;;;;;;;2.15;1.25;;;;;;;;;;6222071;28;20057;-86
2023/06/13 16:19:16;;;;;;;1.25;1.15;;;;;;;;;;6220004;28;20033;-85
2023/06/13 16:22:16;;;;;;;0.88;0.88;;;;;;;;;;6219255;28;20013;-87
2023/06/13 16:25:17;;;;;;;1.13;1.10;;;;;;;;;;6222655;28;20014;-89
2023/06/13 16:28:18;;;;;;;4.40;1.10;;;;;;;;;;6219264;28;20014;-86
2023/06/13 16:31:18;;;;;;;;;;;;;;;;;;6226874;28;20516;-83
2023/06/13 16:34:19;;;;;;;3.07;1.00;;;;;;;;;;6224689;28;19906;-83
2023/06/13 16:37:19;;;;;;;2.60;1.13;;;;;;;;;;6219999;28;20183;-81
2023/06/13 16:40:20;;;;;;;1.85;1.33;;;;;;;;;;6216833;28;20029;-86
2023/06/13 16:43:21;;;;;;;5.50;1.20;;;;;;;;;;6189637;28;20010;-85
2023/06/13 16:46:21;;;;;;;1.63;1.05;;;;;;;;;;6211762;28;20045;-74
2023/06/13 16:49:21;;;;;;;1.53;1.20;;;;;;;;;;6216505;28;20073;-74
2023/06/13 16:52:23;;;;;;;1.07;0.83;;;;;;;;;;6214870;28;20492;-74
2023/06/13 16:55:23;;;;;;;1.23;1.13;;;;;;;;;;6215432;28;20502;-74
2023/06/13 16:58:24;;;;;;;3.63;1.00;;;;;;;;;;6214842;28;20045;-74
2023/06/13 17:01:25;;;;;;;3.15;1.15;;;;;;;;;;6217536;28;20014;-74
2023/06/13 17:04:25;;;;;;;1.97;1.40;;;;;;;;;;6215773;28;20827;-74
2023/06/13 17:07:25;;;;;;;1.85;1.25;;;;;;;;;;6217910;28;20551;-74
2023/06/13 17:10:25;;;;;;;2.70;1.23;;;;;;;;;;6218388;28;20010;-74
2023/06/13 17:13:25;;;;;;;3.80;1.42;;;;;;;;;;6216151;28;20020;-74
2023/06/13 17:16:26;;;;;;;2.13;1.33;;;;;;;;;;6217947;28;20022;-74
2023/06/13 17:19:26;;;;;;;1.73;1.20;;;;;;;;;;6217884;28;20021;-74
2023/06/13 17:22:26;;;;;;;1.97;1.30;;;;;;;;;;6217188;28;20022;-73
2023/06/13 17:25:26;;;;;;;2.80;1.50;;;;;;;;;;6217761;28;20073;-74
2023/06/13 17:28:27;;;;;;;1.52;1.13;;;;;;;;;;6218023;28;20749;-74
2023/06/13 17:31:27;;;;;;;1.20;1.20;;;;;;;;;;6217576;28;20104;-74
2023/06/13 17:34:27;;;;;;;1.17;1.00;;;;;;;;;;6215066;28;20045;-73
2023/06/13 17:37:27;;;;;;;1.77;1.17;;;;;;;;;;6217647;28;20472;-74
2023/06/13 17:40:28;;;;;;;2.37;1.00;;;;;;;;;;6214953;28;20034;-73
2023/06/13 17:43:28;;;;;;;2.13;1.40;;;;;;;;;;6217417;28;20294;-74
2023/06/13 17:46:29;;;;;;;1.50;1.20;;;;;;;;;;6217718;28;20025;-74
2023/06/13 17:49:30;;;;;;;4.72;1.38;;;;;;;;;;6213922;28;20105;-72
2023/06/13 17:52:30;;;;;;;4.53;1.37;;;;;;;;;;6215965;28;20034;-73
2023/06/13 17:55:32;;;;;;;2.78;1.45;;;;;;;;;;6218203;28;20108;-87
2023/06/13 17:58:33;;;;;;;4.05;1.77;;;;;;;;;;6214749;28;20084;-87
2023/06/13 18:01:33;;;;;;;1.63;1.20;;;;;;;;;;6214441;28;20092;-86
2023/06/13 18:04:34;;;;;;;1.60;1.40;;;;;;;;;;6199891;28;20038;-87
2023/06/13 18:07:34;;;;;;;4.15;1.75;;;;;;;;;;6215495;28;20022;-86
2023/06/13 18:10:34;;;;;;;1.77;1.40;;;;;;;;;;6214807;28;20369;-85
2023/06/13 18:13:35;;;;;;;2.65;1.58;;;;;;;;;;6209916;28;20755;-86